createdAt,value
2022-09-12T00:23:01.463Z,12.72
2022-09-12T00:56:08.171Z,12.46
2022-09-12T00:58:40.018Z,12.40
2022-09-12T01:14:17.180Z,12.22
2022-09-12T01:16:47.613Z,12.22
2022-09-12T01:19:38.241Z,12.23
2022-09-12T01:22:24.788Z,12.23
2022-09-12T01:25:07.788Z,12.30
2022-09-12T01:27:48.941Z,12.29
2022-09-12T01:33:36.644Z,12.24
2022-09-12T01:36:31.687Z,12.24
2022-09-12T01:39:30.473Z,12.16
2022-09-12T01:51:26.288Z,11.95
2022-09-12T01:54:28.697Z,11.96
2022-09-12T01:57:00.500Z,11.96
2022-09-12T01:59:33.446Z,11.93
2022-09-12T02:02:06.282Z,11.90
2022-09-12T02:07:58.074Z,11.88
2022-09-12T02:10:32.681Z,11.87
2022-09-12T02:19:07.920Z,11.80
2022-09-12T02:24:41.662Z,11.75
2022-09-12T02:27:37.159Z,11.71
2022-09-12T02:42:53.462Z,11.50
2022-09-12T02:45:22.810Z,11.51
2022-09-12T02:47:53.145Z,11.51
2022-09-12T02:50:20.598Z,11.53
2022-09-12T02:52:47.843Z,11.55
2022-09-12T02:55:15.117Z,11.58
2022-09-12T02:57:42.624Z,11.59
2022-09-12T03:00:12.470Z,11.61
2022-09-12T03:02:55.407Z,11.64
2022-09-12T03:05:27.035Z,11.70
2022-09-12T03:08:02.286Z,11.71
2022-09-12T03:10:40.675Z,11.65
2022-09-12T03:13:18.797Z,11.42
2022-09-12T03:16:00.451Z,11.57
2022-09-12T03:18:42.073Z,11.66
2022-09-12T03:21:16.774Z,11.73
2022-09-12T03:23:50.989Z,11.76
2022-09-12T03:26:26.370Z,11.77
2022-09-12T03:28:55.830Z,11.75
2022-09-12T03:31:24.030Z,11.77
2022-09-12T03:33:51.207Z,11.78
2022-09-12T03:36:22.665Z,11.82
2022-09-12T03:38:49.819Z,11.85
2022-09-12T03:41:16.713Z,11.90
2022-09-12T03:43:44.443Z,11.96
2022-09-12T03:46:11.313Z,11.93
2022-09-12T03:48:39.589Z,11.95
2022-09-12T03:51:09.667Z,11.93
2022-09-12T03:53:36.730Z,11.92
2022-09-12T03:56:07.219Z,11.87
2022-09-12T03:58:35.794Z,11.85
2022-09-12T04:01:07.970Z,11.79
2022-09-12T04:03:34.835Z,11.75
2022-09-12T04:06:03.207Z,11.73
2022-09-12T04:08:30.061Z,11.71
2022-09-12T04:11:02.873Z,11.71
2022-09-12T04:13:29.728Z,11.71
2022-09-12T04:15:57.685Z,11.72
2022-09-12T04:18:24.911Z,11.71
2022-09-12T04:20:51.786Z,11.72
2022-09-12T04:23:20.332Z,11.75
2022-09-12T04:25:54.105Z,11.77
2022-09-12T04:28:21.216Z,11.80
2022-09-12T04:30:48.130Z,11.82
2022-09-12T04:33:15.266Z,11.87
2022-09-12T04:35:42.999Z,11.90
2022-09-12T04:38:09.937Z,11.92
2022-09-12T04:40:38.210Z,11.93
2022-09-12T04:43:06.165Z,11.94
2022-09-12T04:45:33.512Z,11.93
2022-09-12T04:48:00.487Z,11.93
2022-09-12T04:50:27.454Z,11.97
2022-09-12T04:52:55.187Z,11.99
2022-09-12T04:55:22.638Z,12.00
2022-09-12T04:57:51.139Z,12.02
2022-09-12T05:00:18.251Z,12.03
2022-09-12T05:02:45.106Z,12.07
2022-09-12T05:05:11.984Z,12.10
2022-09-12T05:07:39.298Z,12.13
2022-09-12T05:10:07.086Z,12.06
2022-09-12T05:12:33.952Z,12.06
2022-09-12T05:15:02.201Z,12.11
2022-09-12T05:17:29.638Z,12.15
2022-09-12T05:19:56.503Z,12.16
2022-09-12T05:22:23.414Z,12.19
2022-09-12T05:24:50.820Z,12.25
2022-09-12T05:27:17.771Z,12.28
2022-09-12T05:29:44.637Z,12.34
2022-09-12T05:32:12.857Z,12.40
2022-09-12T05:34:40.307Z,12.43
2022-09-12T05:37:07.215Z,12.46
2022-09-12T05:39:34.296Z,12.45
2022-09-12T05:42:01.314Z,12.49
2022-09-12T05:44:28.559Z,12.46
2022-09-12T05:46:55.421Z,12.52
2022-09-12T05:49:23.697Z,12.52
2022-09-12T05:51:51.620Z,12.61
2022-09-12T05:54:20.610Z,12.57
2022-09-12T05:56:48.431Z,12.58
2022-09-12T05:59:17.604Z,12.64
2022-09-12T06:01:44.935Z,12.74
2022-09-12T06:04:12.117Z,12.83
2022-09-12T06:06:45.114Z,12.93
2022-09-12T06:09:13.177Z,12.98
2022-09-12T06:11:40.988Z,13.03
2022-09-12T06:14:09.324Z,13.11
2022-09-12T06:16:37.297Z,13.16
2022-09-12T06:19:06.965Z,13.20
2022-09-12T06:21:35.457Z,13.23
2022-09-12T06:24:04.141Z,13.26
2022-09-12T06:26:43.843Z,13.17
2022-09-12T06:29:14.045Z,13.11
2022-09-12T06:31:42.529Z,13.19
2022-09-12T06:34:11.618Z,13.27
2022-09-12T06:36:40.842Z,13.24
2022-09-12T06:39:12.212Z,13.40
2022-09-12T06:41:43.671Z,13.59
2022-09-12T06:44:13.325Z,13.63
2022-09-12T06:46:40.115Z,13.65
2022-09-12T06:49:08.131Z,13.81
2022-09-12T06:51:36.321Z,13.97
2022-09-12T06:54:04.481Z,14.05
2022-09-12T06:56:32.663Z,14.08
2022-09-12T06:58:59.974Z,14.21
2022-09-12T07:01:28.748Z,14.39
2022-09-12T07:03:57.529Z,14.61
2022-09-12T07:06:29.847Z,14.68
2022-09-12T07:08:58.532Z,14.83
2022-09-12T07:11:27.287Z,14.91
2022-09-12T07:13:56.762Z,15.07
2022-09-12T07:16:24.026Z,15.13
2022-09-12T07:18:52.442Z,15.15
2022-09-12T07:21:20.060Z,15.09
2022-09-12T07:23:47.491Z,14.90
2022-09-12T07:26:16.042Z,15.02
2022-09-12T07:28:43.181Z,15.17
2022-09-12T07:31:13.911Z,15.35
2022-09-12T07:33:42.108Z,15.27
2022-09-12T07:36:12.299Z,15.33
2022-09-12T07:38:39.410Z,15.16
2022-09-12T07:41:11.088Z,15.12
2022-09-12T07:43:38.010Z,15.21
2022-09-12T07:46:05.067Z,15.56
2022-09-12T07:48:33.914Z,15.73
2022-09-12T07:51:01.632Z,15.81
2022-09-12T07:53:33.043Z,15.99
2022-09-12T07:56:00.288Z,16.17
2022-09-12T07:58:27.177Z,16.03
2022-09-12T08:00:54.073Z,16.21
2022-09-12T08:03:20.959Z,16.48
2022-09-12T08:05:49.329Z,16.74
2022-09-12T08:08:16.516Z,16.97
2022-09-12T08:10:43.388Z,17.34
2022-09-12T08:13:10.969Z,17.26
2022-09-12T08:15:37.982Z,17.36
2022-09-12T08:18:05.246Z,17.65
2022-09-12T08:20:32.982Z,18.11
2022-09-12T08:23:01.574Z,18.36
2022-09-12T08:25:28.735Z,18.55
2022-09-12T08:27:55.855Z,18.75
2022-09-12T08:30:22.763Z,18.80
2022-09-12T08:32:49.838Z,18.90
2022-09-12T08:35:17.218Z,19.08
2022-09-12T08:37:44.052Z,19.30
2022-09-12T08:40:16.898Z,19.26
2022-09-12T08:42:54.873Z,19.14
2022-09-12T08:45:28.827Z,19.15
2022-09-12T08:47:56.861Z,19.18
2022-09-12T08:50:23.794Z,19.48
2022-09-12T08:53:04.662Z,19.55
2022-09-12T08:55:36.419Z,19.64
2022-09-12T08:58:12.229Z,19.83
2022-09-12T09:00:45.130Z,19.99
2022-09-12T09:03:48.212Z,20.32
2022-09-12T09:06:26.899Z,20.20
2022-09-12T09:09:03.392Z,20.29
2022-09-12T09:11:52.599Z,20.62
2022-09-12T09:14:48.995Z,21.09
2022-09-12T09:17:21.635Z,21.16
2022-09-12T09:19:54.073Z,21.31
2022-09-12T09:22:32.135Z,21.48
2022-09-12T09:25:02.597Z,21.81
2022-09-12T09:27:40.798Z,22.06
2022-09-12T09:30:15.530Z,22.11
2022-09-12T09:32:45.126Z,22.21
2022-09-12T09:35:16.981Z,22.30
2022-09-12T09:37:58.025Z,22.42
2022-09-12T09:40:32.167Z,22.29
2022-09-12T09:43:10.674Z,22.44
2022-09-12T09:45:37.925Z,22.61
2022-09-12T09:48:16.298Z,22.99
2022-09-12T09:50:49.063Z,23.34
2022-09-12T09:53:33.443Z,23.36
2022-09-12T09:56:05.536Z,23.15
2022-09-12T09:58:35.310Z,23.33
2022-09-12T10:01:03.804Z,23.33
2022-09-12T10:03:33.700Z,23.37
2022-09-12T10:06:05.280Z,23.35
2022-09-12T10:08:35.259Z,23.58
2022-09-12T10:11:04.933Z,23.74
2022-09-12T10:13:40.088Z,24.00
2022-09-12T10:16:19.385Z,24.16
2022-09-12T10:18:46.399Z,24.32
2022-09-12T10:21:17.350Z,24.45
2022-09-12T10:23:46.515Z,24.54
2022-09-12T10:26:15.434Z,24.62
2022-09-12T10:28:47.107Z,24.74
2022-09-12T10:31:17.542Z,24.90
2022-09-12T10:33:52.590Z,25.05
2022-09-12T10:36:19.865Z,25.32
2022-09-12T10:38:52.733Z,25.70
2022-09-12T10:41:20.624Z,25.68
2022-09-12T10:43:49.588Z,25.79
2022-09-12T10:46:28.403Z,25.87
2022-09-12T10:49:24.364Z,25.97
2022-09-12T10:51:54.068Z,25.83
2022-09-12T10:54:23.863Z,25.86
2022-09-12T10:57:09.701Z,26.15
2022-09-12T10:59:55.131Z,26.37
2022-09-12T11:02:28.444Z,26.60
2022-09-12T11:05:03.624Z,26.88
2022-09-12T11:07:43.912Z,26.92
2022-09-12T11:10:36.902Z,26.88
2022-09-12T11:13:17.287Z,27.07
2022-09-12T11:15:58.330Z,27.09
2022-09-12T11:18:32.932Z,26.87
2022-09-12T11:21:23.674Z,27.07
2022-09-12T11:24:18.647Z,26.91
2022-09-12T11:26:55.734Z,26.90
2022-09-12T11:29:38.856Z,26.86
2022-09-12T11:32:25.047Z,27.18
2022-09-12T11:35:03.945Z,27.15
2022-09-12T11:37:49.242Z,27.32
2022-09-12T11:40:30.096Z,27.42
2022-09-12T11:43:05.400Z,27.57
2022-09-12T11:45:38.436Z,27.55
2022-09-12T11:48:14.262Z,27.72
2022-09-12T11:50:41.650Z,27.88
2022-09-12T11:53:15.036Z,27.45
2022-09-12T11:55:52.650Z,27.42
2022-09-12T11:58:23.473Z,27.67
2022-09-12T12:00:56.113Z,27.90
2022-09-12T12:03:32.134Z,27.70
2022-09-12T12:06:05.007Z,27.67
2022-09-12T12:08:38.062Z,27.74
2022-09-12T12:11:08.100Z,27.97
2022-09-12T12:13:39.351Z,28.16
2022-09-12T12:16:12.376Z,28.18
2022-09-12T12:18:42.944Z,27.78
2022-09-12T12:21:32.430Z,27.85
2022-09-12T12:24:12.955Z,27.85
2022-09-12T12:26:57.479Z,27.67
2022-09-12T12:29:44.629Z,27.71
2022-09-12T12:32:23.022Z,27.48
2022-09-12T12:35:02.527Z,27.27
2022-09-12T12:37:54.403Z,27.62
2022-09-12T12:40:26.879Z,27.66
2022-09-12T12:43:05.281Z,27.84
2022-09-12T12:46:04.758Z,27.76
2022-09-12T12:48:36.129Z,27.76
2022-09-12T12:51:36.452Z,27.94
2022-09-12T12:54:08.683Z,27.58
2022-09-12T12:56:40.913Z,27.63
2022-09-12T12:59:19.902Z,28.03
2022-09-12T13:01:55.410Z,27.82
2022-09-12T13:04:25.544Z,27.79
2022-09-12T13:07:03.509Z,27.68
2022-09-12T13:09:37.844Z,27.80
2022-09-12T13:12:08.383Z,27.84
2022-09-12T13:14:51.915Z,28.02
2022-09-12T13:17:41.193Z,28.23
2022-09-12T13:20:28.802Z,28.41
2022-09-12T13:22:58.263Z,28.49
2022-09-12T13:25:28.985Z,28.61
2022-09-12T13:28:04.397Z,28.46
2022-09-12T13:30:33.362Z,28.53
2022-09-12T13:33:09.837Z,28.30
2022-09-12T13:35:43.364Z,27.61
2022-09-12T13:38:23.090Z,27.81
2022-09-12T13:41:08.487Z,27.99
2022-09-12T13:43:40.439Z,28.16
2022-09-12T13:46:09.038Z,28.37
2022-09-12T13:48:36.170Z,28.62
2022-09-12T13:51:06.026Z,28.60
2022-09-12T13:53:44.210Z,28.69
2022-09-12T13:56:17.273Z,28.63
2022-09-12T13:58:52.105Z,28.39
2022-09-12T14:01:18.993Z,28.19
2022-09-12T14:04:08.812Z,28.37
2022-09-12T14:06:44.351Z,28.15
2022-09-12T14:09:15.918Z,28.04
2022-09-12T14:11:43.342Z,28.12
2022-09-12T14:14:23.220Z,28.25
2022-09-12T14:16:50.321Z,28.57
2022-09-12T14:19:18.596Z,28.71
2022-09-12T14:21:46.490Z,28.67
2022-09-12T14:24:15.076Z,28.63
2022-09-12T14:26:44.758Z,28.59
2022-09-12T14:29:16.784Z,28.57
2022-09-12T14:31:43.928Z,28.76
2022-09-12T14:34:13.161Z,28.77
2022-09-12T14:36:43.430Z,28.90
2022-09-12T14:39:24.655Z,28.97
2022-09-12T14:42:00.011Z,29.09
2022-09-12T14:44:28.595Z,29.15
2022-09-12T14:47:10.585Z,28.94
2022-09-12T14:49:38.162Z,27.95
2022-09-12T14:52:07.570Z,28.63
2022-09-12T14:54:42.645Z,28.91
2022-09-12T14:57:35.315Z,28.83
2022-09-12T15:00:20.469Z,28.85
2022-09-12T15:02:47.808Z,28.84
2022-09-12T15:05:27.146Z,28.65
2022-09-12T15:07:56.896Z,28.68
2022-09-12T15:10:27.670Z,28.65
2022-09-12T15:13:17.260Z,28.39
2022-09-12T15:15:46.953Z,28.50
2022-09-12T15:18:14.964Z,28.55
2022-09-12T15:20:43.512Z,28.63
2022-09-12T15:23:29.969Z,28.55
2022-09-12T15:25:58.281Z,28.49
2022-09-12T15:28:26.849Z,28.36
2022-09-12T15:30:56.167Z,28.05
2022-09-12T15:33:24.899Z,27.99
2022-09-12T15:35:52.908Z,27.94
2022-09-12T15:38:25.661Z,27.99
2022-09-12T15:40:54.041Z,27.75
2022-09-12T15:43:23.454Z,27.66
2022-09-12T15:45:52.233Z,27.47
2022-09-12T15:48:20.600Z,27.41
2022-09-12T15:50:47.797Z,27.48
2022-09-12T15:53:16.400Z,27.23
2022-09-12T15:55:44.012Z,27.26
2022-09-12T15:58:10.915Z,27.22
2022-09-12T16:00:39.173Z,27.22
2022-09-12T16:03:06.088Z,27.03
2022-09-12T16:05:33.061Z,26.99
2022-09-12T16:07:59.922Z,27.08
2022-09-12T16:10:29.891Z,26.95
2022-09-12T16:12:57.035Z,26.81
2022-09-12T16:15:25.828Z,26.86
2022-09-12T16:17:54.131Z,26.82
2022-09-12T16:20:22.151Z,26.81
2022-09-12T16:22:49.391Z,26.73
2022-09-12T16:25:17.319Z,26.75
2022-09-12T16:27:44.959Z,26.68
2022-09-12T16:30:13.125Z,26.62
2022-09-12T16:32:40.096Z,26.49
2022-09-12T16:35:09.657Z,26.36
2022-09-12T16:37:36.569Z,26.40
2022-09-12T16:40:05.096Z,26.35
2022-09-12T16:42:32.259Z,26.30
2022-09-12T16:44:59.104Z,26.21
2022-09-12T16:47:26.432Z,26.18
2022-09-12T16:49:53.278Z,26.20
2022-09-12T16:52:21.600Z,26.20
2022-09-12T16:54:48.399Z,26.06
2022-09-12T16:57:15.287Z,26.02
2022-09-12T16:59:42.220Z,25.94
2022-09-12T17:02:12.094Z,25.92
2022-09-12T17:04:38.947Z,25.87
2022-09-12T17:07:05.887Z,25.78
2022-09-12T17:09:34.311Z,25.67
2022-09-12T17:12:01.619Z,25.56
2022-09-12T17:14:28.509Z,25.43
2022-09-12T17:16:55.749Z,25.27
2022-09-12T17:19:29.732Z,25.15
2022-09-12T17:21:57.522Z,25.01
2022-09-12T17:24:24.787Z,24.93
2022-09-12T17:26:53.722Z,24.82
2022-09-12T17:29:21.056Z,24.65
2022-09-12T17:31:48.206Z,24.51
2022-09-12T17:34:16.281Z,24.39
2022-09-12T17:36:48.386Z,24.26
2022-09-12T17:39:15.412Z,24.04
2022-09-12T17:41:42.941Z,23.89
2022-09-12T17:44:12.934Z,23.76
2022-09-12T17:46:40.188Z,23.63
2022-09-12T17:49:10.571Z,23.49
2022-09-12T17:51:37.555Z,23.34
2022-09-12T17:54:08.315Z,23.13
2022-09-12T17:56:37.090Z,22.87
2022-09-12T17:59:05.625Z,22.70
2022-09-12T18:01:53.103Z,22.56
2022-09-12T18:04:20.433Z,22.39
2022-09-12T18:06:50.392Z,22.25
2022-09-12T18:09:18.642Z,22.08
2022-09-12T18:11:46.161Z,21.90
2022-09-12T18:14:14.419Z,21.73
2022-09-12T18:16:43.247Z,21.68
2022-09-12T18:19:10.997Z,21.54
2022-09-12T18:21:38.386Z,21.43
2022-09-12T18:24:06.372Z,21.44
2022-09-12T18:26:34.685Z,21.46
2022-09-12T18:29:02.895Z,21.46
2022-09-12T18:31:30.530Z,21.37
2022-09-12T18:34:02.671Z,21.14
2022-09-12T18:36:30.369Z,20.91
2022-09-12T18:38:58.543Z,20.79
2022-09-12T18:41:26.596Z,20.62
2022-09-12T18:43:55.483Z,20.51
2022-09-12T18:46:22.917Z,20.43
2022-09-12T18:48:49.909Z,20.40
2022-09-12T18:51:20.443Z,20.34
2022-09-12T18:53:54.828Z,20.31
2022-09-12T18:56:23.527Z,20.07
2022-09-12T18:58:52.892Z,20.05
2022-09-12T19:01:22.129Z,19.87
2022-09-12T19:03:49.564Z,19.89
2022-09-12T19:06:20.373Z,19.99
2022-09-12T19:08:47.797Z,20.12
2022-09-12T19:11:15.652Z,20.13
2022-09-12T19:13:44.884Z,20.37
2022-09-12T19:16:15.047Z,20.58
2022-09-12T19:18:42.654Z,20.70
2022-09-12T19:21:14.443Z,20.81
2022-09-12T19:23:43.021Z,20.94
2022-09-12T19:26:12.456Z,20.87
2022-09-12T19:28:39.823Z,20.87
2022-09-12T19:31:07.384Z,20.62
2022-09-12T19:33:34.896Z,20.23
2022-09-12T19:36:03.379Z,19.92
2022-09-12T19:38:30.294Z,19.68
2022-09-12T19:40:59.391Z,19.33
2022-09-12T19:43:26.622Z,19.31
2022-09-12T19:45:53.710Z,19.26
2022-09-12T19:48:21.247Z,19.16
2022-09-12T19:50:48.407Z,19.09
2022-09-12T19:53:15.907Z,19.20
2022-09-12T19:55:43.172Z,19.38
2022-09-12T19:58:11.961Z,19.22
2022-09-12T20:00:39.288Z,19.20
2022-09-12T20:03:06.248Z,19.32
2022-09-12T20:05:33.477Z,19.27
2022-09-12T20:08:00.781Z,19.17
2022-09-12T20:10:27.839Z,19.08
2022-09-12T20:12:54.687Z,18.98
2022-09-12T20:15:23.046Z,19.00
2022-09-12T20:17:53.912Z,18.91
2022-09-12T20:20:20.985Z,18.81
2022-09-12T20:22:51.159Z,18.80
2022-09-12T20:25:19.952Z,18.79
2022-09-12T20:27:47.454Z,18.65
2022-09-12T20:30:14.720Z,18.53
2022-09-12T20:32:43.267Z,18.15
2022-09-12T20:35:10.603Z,18.15
2022-09-12T20:37:39.970Z,18.10
2022-09-12T20:40:08.226Z,18.03
2022-09-12T20:42:35.201Z,17.99
2022-09-12T20:45:02.182Z,17.95
2022-09-12T20:47:29.009Z,17.93
2022-09-12T20:49:57.324Z,17.89
2022-09-12T20:52:24.277Z,17.85
2022-09-12T20:54:51.183Z,17.78
2022-09-12T20:57:18.011Z,17.66
2022-09-12T20:59:44.953Z,17.59
2022-09-12T21:02:14.343Z,17.48
2022-09-12T21:04:41.437Z,17.37
2022-09-12T21:07:09.663Z,17.32
2022-09-12T21:09:36.708Z,17.32
2022-09-12T21:12:03.877Z,17.28
2022-09-12T21:14:31.576Z,17.30
2022-09-12T21:16:58.385Z,17.38
2022-09-12T21:19:25.261Z,17.37
2022-09-12T21:21:52.088Z,17.28
2022-09-12T21:24:20.607Z,17.15
2022-09-12T21:26:47.440Z,17.02
2022-09-12T21:29:14.337Z,16.95
2022-09-12T21:31:42.848Z,16.87
2022-09-12T21:34:09.914Z,16.78
2022-09-12T21:36:37.580Z,16.72
2022-09-12T21:39:04.975Z,16.65
2022-09-12T21:41:33.296Z,16.58
2022-09-12T21:44:00.253Z,16.50
2022-09-12T21:46:27.310Z,16.40
2022-09-12T21:48:54.171Z,16.08
2022-09-12T21:51:21.066Z,16.20
2022-09-12T21:53:48.093Z,16.23
2022-09-12T21:56:15.021Z,16.25
2022-09-12T21:58:43.239Z,16.25
2022-09-12T22:01:11.910Z,16.22
2022-09-12T22:03:39.155Z,16.14
2022-09-12T22:06:06.818Z,16.08
2022-09-12T22:08:37.460Z,16.13
2022-09-12T22:11:07.971Z,16.19
2022-09-12T22:13:35.946Z,16.28
2022-09-12T22:16:04.420Z,16.19
2022-09-12T22:18:33.308Z,16.12
2022-09-12T22:21:01.893Z,16.01
2022-09-12T22:23:47.180Z,15.91
2022-09-12T22:26:14.384Z,15.74
2022-09-12T22:28:41.614Z,15.71
2022-09-12T22:31:12.085Z,15.68
2022-09-12T22:33:39.966Z,15.65
2022-09-12T22:36:07.372Z,15.65
2022-09-12T22:38:34.385Z,15.63
2022-09-12T22:41:03.990Z,15.63
2022-09-12T22:43:32.378Z,15.64
2022-09-12T22:45:59.471Z,15.60
2022-09-12T22:48:28.117Z,15.55
2022-09-12T22:50:55.081Z,15.49
2022-09-12T22:53:21.972Z,15.45
2022-09-12T22:55:48.948Z,15.40
2022-09-12T22:58:15.922Z,15.37
2022-09-12T23:00:46.221Z,15.28
2022-09-12T23:03:13.194Z,15.35
2022-09-12T23:05:41.478Z,15.31
2022-09-12T23:08:08.400Z,15.16
2022-09-12T23:10:35.785Z,15.08
2022-09-12T23:13:02.735Z,15.31
2022-09-12T23:15:29.633Z,15.28
2022-09-12T23:17:56.750Z,15.25
2022-09-12T23:20:23.861Z,15.26
2022-09-12T23:22:52.289Z,15.24
2022-09-12T23:25:22.720Z,15.22
2022-09-12T23:27:50.881Z,15.23
2022-09-12T23:30:21.607Z,15.15
2022-09-12T23:32:49.201Z,15.07
2022-09-12T23:35:18.473Z,15.03
2022-09-12T23:37:45.736Z,14.95
2022-09-12T23:40:14.345Z,14.88
2022-09-12T23:42:41.272Z,14.83
2022-09-12T23:45:08.877Z,14.80
2022-09-12T23:47:35.727Z,14.76
2022-09-12T23:50:02.635Z,14.67
2022-09-12T23:52:29.732Z,14.74
2022-09-12T23:54:56.594Z,14.88
2022-09-12T23:57:24.895Z,14.97
2022-09-12T23:59:51.765Z,14.90
